createdAt,value
2022-11-30T00:01:41.676Z,87.94
2022-11-30T00:06:47.290Z,87.86
2022-11-30T00:11:53.172Z,87.84
2022-11-30T00:16:58.858Z,87.84
2022-11-30T00:22:05.075Z,87.81
2022-11-30T00:27:10.790Z,87.92
2022-11-30T00:32:16.717Z,87.94
2022-11-30T00:37:24.042Z,87.93
2022-11-30T00:42:29.897Z,87.93
2022-11-30T00:47:36.165Z,87.92
2022-11-30T00:52:43.934Z,87.58
2022-11-30T00:57:49.662Z,87.56
2022-11-30T01:02:56.841Z,87.72
2022-11-30T01:08:03.848Z,87.89
2022-11-30T01:13:10.311Z,87.88
2022-11-30T01:18:16.189Z,87.86
2022-11-30T01:23:21.970Z,87.71
2022-11-30T01:28:28.029Z,87.84
2022-11-30T01:33:34.238Z,87.87
2022-11-30T01:38:41.713Z,87.69
2022-11-30T01:43:49.767Z,87.67
2022-11-30T01:49:03.193Z,87.91
2022-11-30T01:54:12.708Z,87.93
2022-11-30T01:59:20.965Z,88.08
2022-11-30T02:04:31.830Z,87.69
2022-11-30T02:09:43.126Z,87.65
2022-11-30T02:14:53.346Z,87.72
2022-11-30T02:20:35.456Z,87.66
2022-11-30T02:25:47.784Z,87.73
2022-11-30T02:30:57.137Z,87.95
2022-11-30T02:36:06.464Z,87.98
2022-11-30T02:41:12.435Z,87.77
2022-11-30T02:46:24.260Z,87.59
2022-11-30T02:51:32.632Z,87.66
2022-11-30T02:56:38.384Z,87.88
2022-11-30T03:01:44.985Z,87.78
2022-11-30T03:06:51.045Z,87.82
2022-11-30T03:11:56.961Z,87.83
2022-11-30T03:17:02.882Z,87.68
2022-11-30T03:22:08.620Z,87.70
2022-11-30T03:27:14.468Z,87.43
2022-11-30T03:32:20.389Z,87.58
2022-11-30T03:37:26.210Z,87.75
2022-11-30T03:42:32.031Z,87.80
2022-11-30T03:47:38.356Z,87.94
2022-11-30T03:52:43.993Z,88.06
2022-11-30T03:57:49.656Z,87.92
2022-11-30T04:02:55.338Z,87.96
2022-11-30T04:08:01.080Z,87.98
2022-11-30T04:13:06.854Z,88.05
2022-11-30T04:18:12.741Z,88.09
2022-11-30T04:23:19.009Z,88.13
2022-11-30T04:28:24.688Z,88.09
2022-11-30T04:33:30.654Z,88.23
2022-11-30T04:38:37.998Z,88.15
2022-11-30T04:43:43.719Z,88.32
2022-11-30T04:48:49.449Z,88.43
2022-11-30T04:53:55.261Z,88.37
2022-11-30T04:59:02.508Z,88.31
2022-11-30T05:04:08.268Z,88.40
2022-11-30T05:09:13.916Z,88.43
2022-11-30T05:14:19.700Z,88.47
2022-11-30T05:19:25.560Z,88.38
2022-11-30T05:24:31.420Z,88.34
2022-11-30T05:29:37.679Z,88.18
2022-11-30T05:34:50.594Z,88.05
2022-11-30T05:39:57.617Z,88.11
2022-11-30T05:45:03.508Z,88.40
2022-11-30T05:50:10.624Z,88.26
2022-11-30T05:55:16.409Z,88.19
2022-11-30T06:00:23.353Z,88.16
2022-11-30T06:05:29.247Z,88.48
2022-11-30T06:10:36.653Z,88.55
2022-11-30T06:15:42.866Z,88.52
2022-11-30T06:20:48.463Z,88.71
2022-11-30T06:25:54.190Z,88.82
2022-11-30T06:31:01.107Z,88.85
2022-11-30T06:36:08.275Z,88.85
2022-11-30T06:41:14.142Z,88.91
2022-11-30T06:46:24.681Z,88.99
2022-11-30T06:51:30.429Z,88.92
2022-11-30T06:56:36.430Z,88.84
2022-11-30T07:01:42.187Z,88.98
2022-11-30T07:06:47.845Z,89.02
2022-11-30T07:11:53.630Z,88.97
2022-11-30T07:16:59.345Z,89.18
2022-11-30T07:22:05.375Z,89.21
2022-11-30T07:27:11.455Z,89.11
2022-11-30T07:32:17.230Z,88.85
2022-11-30T07:37:23.070Z,89.02
2022-11-30T07:42:28.778Z,88.95
2022-11-30T07:47:34.471Z,88.90
2022-11-30T07:52:41.236Z,88.86
2022-11-30T07:57:47.492Z,88.90
2022-11-30T08:02:53.271Z,89.15
2022-11-30T08:07:59.047Z,89.05
2022-11-30T08:13:04.759Z,88.98
2022-11-30T08:18:10.849Z,88.94
2022-11-30T08:23:16.637Z,88.98
2022-11-30T08:28:22.449Z,89.00
2022-11-30T08:33:30.884Z,89.18
2022-11-30T08:38:37.838Z,89.27
2022-11-30T08:43:43.511Z,89.50
2022-11-30T08:48:50.188Z,89.21
2022-11-30T08:53:55.831Z,89.02
2022-11-30T08:59:01.456Z,89.11
2022-11-30T09:04:07.221Z,89.13
2022-11-30T09:09:13.585Z,88.90
2022-11-30T09:14:19.318Z,88.94
2022-11-30T09:19:26.350Z,88.92
2022-11-30T09:24:32.063Z,88.98
2022-11-30T09:29:39.190Z,89.09
2022-11-30T09:34:44.844Z,89.31
2022-11-30T09:39:50.460Z,89.21
2022-11-30T09:45:02.449Z,89.24
2022-11-30T09:50:13.883Z,89.30
2022-11-30T09:55:27.149Z,89.47
2022-11-30T10:00:33.626Z,89.39
2022-11-30T10:05:48.202Z,89.46
2022-11-30T10:11:10.633Z,89.41
2022-11-30T10:16:28.449Z,89.58
2022-11-30T10:21:51.706Z,89.33
2022-11-30T10:26:58.801Z,89.27
2022-11-30T10:32:19.329Z,89.04
2022-11-30T10:37:34.240Z,89.04
2022-11-30T10:42:45.512Z,89.39
2022-11-30T10:47:56.908Z,89.48
2022-11-30T10:53:03.340Z,89.55
2022-11-30T10:58:21.317Z,88.88
2022-11-30T11:03:27.878Z,88.98
2022-11-30T11:08:34.338Z,88.80
2022-11-30T11:13:42.192Z,88.89
2022-11-30T11:18:56.094Z,89.19
2022-11-30T11:24:10.983Z,89.03
2022-11-30T11:29:31.463Z,89.19
2022-11-30T11:34:38.545Z,89.27
2022-11-30T11:39:54.888Z,89.68
2022-11-30T11:45:02.988Z,89.57
2022-11-30T11:51:04.429Z,89.80
2022-11-30T11:56:00.326Z,89.87
2022-11-30T12:01:38.649Z,90.14
2022-11-30T12:06:38.163Z,90.34
2022-11-30T12:11:45.996Z,90.63
2022-11-30T12:17:12.674Z,90.57
2022-11-30T12:22:33.040Z,90.78
2022-11-30T12:27:53.362Z,90.73
2022-11-30T12:33:10.805Z,90.50
2022-11-30T12:38:32.231Z,90.58
2022-11-30T12:43:48.659Z,90.49
2022-11-30T12:49:13.350Z,90.91
2022-11-30T12:54:23.966Z,91.09
2022-11-30T12:59:40.797Z,91.09
2022-11-30T13:04:57.665Z,90.82
2022-11-30T13:10:15.475Z,90.63
2022-11-30T13:15:23.204Z,90.38
2022-11-30T13:20:36.842Z,90.37
2022-11-30T13:31:21.404Z,90.39
2022-11-30T13:36:37.926Z,90.30
2022-11-30T13:41:46.343Z,89.94
2022-11-30T13:46:53.306Z,89.71
2022-11-30T13:52:22.205Z,89.99
2022-11-30T13:58:02.314Z,90.13
2022-11-30T14:03:28.406Z,89.95
2022-11-30T14:08:38.576Z,89.95
2022-11-30T14:13:45.734Z,89.86
2022-11-30T14:18:53.248Z,90.00
2022-11-30T14:24:02.109Z,89.78
2022-11-30T14:29:16.843Z,89.82
2022-11-30T14:34:24.875Z,89.79
2022-11-30T14:39:34.537Z,89.78
2022-11-30T14:44:42.437Z,89.74
2022-11-30T14:49:52.252Z,89.29
2022-11-30T14:55:13.187Z,88.76
2022-11-30T15:00:21.588Z,88.67
2022-11-30T15:05:30.748Z,88.67
2022-11-30T15:10:36.522Z,88.67
2022-11-30T15:15:52.074Z,88.44
2022-11-30T15:21:02.631Z,88.38
2022-11-30T15:26:17.208Z,88.54
2022-11-30T15:31:24.370Z,88.73
2022-11-30T15:36:35.894Z,88.73
2022-11-30T15:41:41.621Z,88.66
2022-11-30T15:46:59.755Z,88.58
2022-11-30T15:52:16.679Z,88.52
2022-11-30T15:57:24.537Z,88.61
2022-11-30T16:02:36.008Z,88.63
2022-11-30T16:07:52.732Z,88.60
2022-11-30T16:12:58.664Z,88.72
2022-11-30T16:18:19.091Z,88.45
2022-11-30T16:23:25.988Z,88.34
2022-11-30T16:28:31.789Z,88.47
2022-11-30T16:33:38.168Z,88.66
2022-11-30T16:38:47.187Z,88.73
2022-11-30T16:43:55.738Z,88.80
2022-11-30T16:49:01.838Z,88.73
2022-11-30T16:54:09.654Z,89.00
2022-11-30T16:59:20.557Z,89.07
2022-11-30T17:04:29.927Z,89.00
2022-11-30T17:09:36.377Z,88.95
2022-11-30T17:14:42.590Z,88.82
2022-11-30T17:19:52.459Z,88.82
2022-11-30T17:25:01.679Z,88.65
2022-11-30T17:30:10.424Z,88.01
2022-11-30T17:35:17.155Z,87.72
2022-11-30T17:40:22.888Z,87.69
2022-11-30T17:45:28.665Z,87.38
2022-11-30T17:50:41.473Z,87.31
2022-11-30T17:55:49.118Z,87.55
2022-11-30T18:00:55.333Z,87.36
2022-11-30T18:06:02.770Z,87.19
2022-11-30T18:11:13.722Z,87.24
2022-11-30T18:16:21.628Z,87.18
2022-11-30T18:21:29.897Z,86.94
2022-11-30T18:26:35.865Z,86.93
2022-11-30T18:31:41.725Z,87.06
2022-11-30T18:36:47.463Z,87.11
2022-11-30T18:41:53.238Z,87.16
2022-11-30T18:46:58.899Z,87.14
2022-11-30T18:52:04.787Z,87.10
2022-11-30T18:57:10.547Z,87.32
2022-11-30T19:02:19.119Z,87.45
2022-11-30T19:07:25.252Z,87.37
2022-11-30T19:12:31.040Z,87.31
2022-11-30T19:17:36.756Z,87.24
2022-11-30T19:22:42.655Z,87.16
2022-11-30T19:27:48.399Z,87.22
2022-11-30T19:32:54.453Z,87.26
2022-11-30T19:38:02.847Z,87.27
2022-11-30T19:43:08.541Z,87.24
2022-11-30T19:48:14.267Z,87.32
2022-11-30T19:53:20.397Z,87.35
2022-11-30T19:58:26.327Z,87.16
2022-11-30T20:03:35.897Z,87.25
2022-11-30T20:08:41.755Z,87.48
2022-11-30T20:13:47.792Z,87.56
2022-11-30T20:18:57.718Z,87.68
2022-11-30T20:24:06.101Z,87.71
2022-11-30T20:29:15.808Z,87.77
2022-11-30T20:34:21.501Z,87.91
2022-11-30T20:39:27.098Z,88.11
2022-11-30T20:44:32.773Z,88.32
2022-11-30T20:49:38.451Z,88.48
2022-11-30T20:54:44.261Z,88.67
2022-11-30T20:59:50.043Z,88.72
2022-11-30T21:04:57.434Z,88.79
2022-11-30T21:10:03.222Z,88.94
2022-11-30T21:15:10.545Z,89.00
2022-11-30T21:20:16.586Z,89.32
2022-11-30T21:25:22.509Z,89.53
2022-11-30T21:30:28.336Z,89.74
2022-11-30T21:35:34.215Z,89.95
2022-11-30T21:40:40.222Z,90.09
2022-11-30T21:45:55.716Z,90.22
2022-11-30T21:51:03.145Z,90.52
2022-11-30T21:56:13.128Z,90.55
2022-11-30T22:01:25.567Z,90.58
2022-11-30T22:06:33.510Z,90.74
2022-11-30T22:11:42.376Z,90.80
2022-11-30T22:16:48.065Z,90.84
2022-11-30T22:21:53.908Z,90.88
2022-11-30T22:26:59.550Z,91.01
2022-11-30T22:32:05.663Z,91.14
2022-11-30T22:37:11.456Z,91.34
2022-11-30T22:42:17.096Z,91.51
2022-11-30T22:47:22.922Z,91.51
2022-11-30T22:52:54.917Z,91.73
2022-11-30T22:57:55.031Z,91.92
2022-11-30T23:03:00.821Z,92.05
2022-11-30T23:08:07.087Z,92.31
2022-11-30T23:13:12.890Z,92.39
2022-11-30T23:18:18.625Z,92.58
2022-11-30T23:23:24.881Z,92.82
2022-11-30T23:28:30.504Z,92.89
2022-11-30T23:33:36.432Z,93.01
2022-11-30T23:38:42.309Z,93.07
2022-11-30T23:43:48.207Z,93.03
2022-11-30T23:48:55.920Z,93.12
2022-11-30T23:54:01.880Z,92.98
2022-11-30T23:59:07.449Z,93.03
